Time;durP1;ratioP1;P1;durP2;ratioP2;P2;SDS_P1;SDS_P2;PMS_P1;PMS_P2;Temp;Humidity;BMP_temperature;BMP_pressure;BME280_temperature;BME280_humidity;BME280_pressure;Samples;Min_cycle;Max_cycle;Signal;HPM_P1;HPM_P2
2022/04/23 00:00:27;;;;;;;19.43;17.43;;;;;;;8.47;79.02;94197.25;4974265;28;20348;-79
2022/04/23 00:02:53;;;;;;;18.57;16.63;;;;;;;8.31;79.03;94206.84;4973984;28;20299;-78
2022/04/23 00:05:18;;;;;;;19.17;16.57;;;;;;;8.30;78.89;94197.44;4975809;28;20207;-78
2022/04/23 00:07:43;;;;;;;22.07;17.30;;;;;;;8.27;79.40;94205.56;4974505;28;20685;-79
2022/04/23 00:10:09;;;;;;;18.70;16.27;;;;;;;8.22;79.53;94199.09;4974578;28;20547;-79
2022/04/23 00:12:34;;;;;;;20.03;17.90;;;;;;;8.20;79.38;94201.03;5005924;28;20177;-79
2022/04/23 00:14:59;;;;;;;20.00;17.47;;;;;;;8.29;79.77;94204.41;4974165;28;20259;-78
2022/04/23 00:17:25;;;;;;;19.13;17.13;;;;;;;8.27;79.67;94206.34;4973813;28;20196;-78
2022/04/23 00:19:50;;;;;;;19.23;17.20;;;;;;;8.20;80.38;94206.19;4990466;28;20278;-79
2022/04/23 00:22:16;;;;;;;20.20;17.33;;;;;;;8.13;79.92;94202.69;4988734;28;20188;-78
2022/04/23 00:24:42;;;;;;;19.57;17.47;;;;;;;8.06;80.72;94199.16;4990211;28;20204;-78
2022/04/23 00:27:07;;;;;;;20.13;18.13;;;;;;;8.04;80.89;94211.44;4973596;28;20195;-78
2022/04/23 00:29:34;;;;;;;22.03;17.23;;;;;;;8.10;80.90;94213.34;4974215;28;20188;-79
2022/04/23 00:31:59;;;;;;;20.17;18.03;;;;;;;7.97;81.22;94215.63;4973478;28;20548;-78
2022/04/23 00:34:26;;;;;;;22.20;17.20;;;;;;;7.91;81.51;94221.44;4972808;28;20203;-78
2022/04/23 00:36:51;;;;;;;19.27;17.17;;;;;;;7.93;81.74;94209.97;4973961;28;20184;-79
2022/04/23 00:39:16;;;;;;;19.43;17.47;;;;;;;8.05;81.51;94213.03;4983639;28;20558;-78
2022/04/23 00:41:48;;;;;;;20.53;17.87;;;;;;;8.07;81.75;94202.53;4992880;28;20234;-79
2022/04/23 00:44:14;;;;;;;19.67;17.57;;;;;;;8.11;81.57;94202.03;5009433;28;20190;-77
2022/04/23 00:46:40;;;;;;;20.37;17.67;;;;;;;8.16;82.05;94211.88;4983612;28;20184;-79
2022/04/23 00:49:08;;;;;;;19.63;17.70;;;;;;;8.19;81.82;94204.59;4999175;28;20254;-79
2022/04/23 00:51:33;;;;;;;23.60;17.80;;;;;;;8.20;81.88;94210.56;4976852;28;20207;-79
2022/04/23 00:54:01;;;;;;;21.20;17.43;;;;;;;8.12;82.18;94210.59;4977373;28;20184;-80
2022/04/23 00:56:26;;;;;;;21.27;17.40;;;;;;;8.13;82.29;94205.28;4977941;28;20602;-80
2022/04/23 00:58:52;;;;;;;20.27;18.17;;;;;;;8.16;82.26;94210.09;4978243;28;20204;-80
2022/04/23 01:01:22;;;;;;;21.37;17.53;;;;;;;8.08;82.37;94199.78;4976906;28;20184;-79
2022/04/23 01:03:47;;;;;;;20.37;18.20;;;;;;;8.02;82.55;94205.59;4977649;28;20714;-80
2022/04/23 01:06:13;;;;;;;19.37;16.97;;;;;;;7.98;83.22;94206.09;4977652;28;20207;-80
2022/04/23 01:08:39;;;;;;;20.77;17.10;;;;;;;7.93;83.41;94204.81;4977089;28;20212;-80
2022/04/23 01:11:04;;;;;;;20.73;17.97;;;;;;;7.99;83.36;94198.19;4993133;28;20267;-79
2022/04/23 01:13:30;;;;;;;21.27;18.17;;;;;;;8.05;83.30;94191.56;4992731;28;20238;-79
2022/04/23 01:16:02;;;;;;;19.37;16.77;;;;;;;8.02;83.78;94197.84;4992859;28;20700;-80
2022/04/23 01:18:28;;;;;;;24.47;18.30;;;;;;;7.98;84.15;94195.75;4994049;28;20297;-80
2022/04/23 01:20:56;;;;;;;20.87;18.00;;;;;;;8.04;84.18;94195.09;4977088;28;20286;-79
2022/04/23 01:23:21;;;;;;;19.90;17.70;;;;;;;7.89;84.70;94197.56;4993949;28;20190;-80
2022/04/23 01:25:49;;;;;;;20.57;18.03;;;;;;;7.82;84.12;94197.41;4976830;28;20294;-80
2022/04/23 01:28:15;;;;;;;23.00;17.63;;;;;;;7.88;84.79;94188.19;4976443;28;20212;-80
2022/04/23 01:30:40;;;;;;;21.30;17.83;;;;;;;7.89;84.92;94184.63;5008260;28;20564;-77
2022/04/23 01:33:06;;;;;;;20.40;18.13;;;;;;;7.81;84.91;94182.06;4977054;28;20191;-79
2022/04/23 01:35:31;;;;;;;19.67;17.57;;;;;;;7.72;85.46;94180.47;4995482;28;20176;-79
2022/04/23 01:37:56;;;;;;;22.40;18.73;;;;;;;7.75;85.36;94180.13;4996154;28;20211;-78
2022/04/23 01:40:22;;;;;;;20.03;17.47;;;;;;;7.73;85.43;94176.91;4980652;28;20207;-78
2022/04/23 01:42:47;;;;;;;21.50;18.20;;;;;;;7.80;85.71;94185.63;4979404;28;20647;-78
2022/04/23 01:45:12;;;;;;;20.87;18.27;;;;;;;7.74;85.78;94186.25;4979876;28;20215;-79
2022/04/23 01:47:37;;;;;;;21.83;16.93;;;;;;;7.74;86.06;94183.69;5012602;28;20203;-79
2022/04/23 01:50:03;;;;;;;19.10;17.03;;;;;;;7.76;86.32;94184.31;4996510;28;20210;-79
2022/04/23 01:52:28;;;;;;;22.10;17.90;;;;;;;7.69;86.49;94191.13;4979153;28;20180;-79
2022/04/23 01:54:54;;;;;;;19.60;17.23;;;;;;;7.66;86.74;94182.72;4980109;28;20176;-79
2022/04/23 01:57:19;;;;;;;20.00;16.53;;;;;;;7.54;86.57;94183.22;4979724;28;20204;-79
2022/04/23 01:59:44;;;;;;;20.93;17.97;;;;;;;7.60;86.85;94180.78;4996408;28;20180;-78
2022/04/23 02:02:10;;;;;;;20.60;17.03;;;;;;;7.66;87.49;94177.53;4978900;28;20187;-79
2022/04/23 02:04:35;;;;;;;20.20;17.37;;;;;;;7.65;87.37;94181.09;4995523;28;20211;-79
2022/04/23 02:07:00;;;;;;;20.97;17.40;;;;;;;7.62;87.40;94181.44;4980336;28;20648;-79
2022/04/23 02:09:26;;;;;;;21.37;17.07;;;;;;;7.55;87.32;94188.22;4996277;28;20214;-79
2022/04/23 02:11:51;;;;;;;20.70;17.40;;;;;;;7.56;88.10;94181.28;4995681;28;20652;-79
2022/04/23 02:14:17;;;;;;;19.57;16.93;;;;;;;7.50;88.82;94190.47;4979220;28;20664;-78
2022/04/23 02:16:42;;;;;;;20.30;17.17;;;;;;;7.41;88.65;94183.69;4995369;28;20191;-79
2022/04/23 02:19:08;;;;;;;19.23;16.50;;;;;;;7.40;89.34;94189.81;4979713;28;20277;-78
2022/04/23 02:21:33;;;;;;;18.50;16.13;;;;;;;7.36;89.43;94185.97;4994570;28;20179;-79
2022/04/23 02:23:58;;;;;;;20.90;16.80;;;;;;;7.31;89.88;94183.03;4995619;28;20770;-79
2022/04/23 02:26:24;;;;;;;19.87;16.93;;;;;;;7.30;90.14;94191.75;4995629;28;20587;-79
2022/04/23 02:28:50;;;;;;;18.93;16.93;;;;;;;7.32;90.44;94188.03;4995745;28;20198;-78
2022/04/23 02:31:15;;;;;;;18.07;15.97;;;;;;;7.28;90.74;94183.38;4978617;28;20183;-79
2022/04/23 02:33:41;;;;;;;17.97;16.07;;;;;;;7.23;90.79;94189.00;4994709;28;20286;-78
2022/04/23 02:36:07;;;;;;;18.03;16.13;;;;;;;7.18;91.18;94188.69;4995656;28;20176;-79
2022/04/23 02:38:33;;;;;;;20.80;16.77;;;;;;;7.25;91.56;94186.28;4995725;28;20198;-79
2022/04/23 02:40:58;;;;;;;18.07;16.17;;;;;;;7.17;91.27;94197.41;4978897;28;20187;-79
2022/04/23 02:43:23;;;;;;;20.20;16.30;;;;;;;7.16;91.67;94189.81;4978555;28;20215;-79
2022/04/23 02:45:49;;;;;;;18.60;16.53;;;;;;;7.13;91.84;94185.78;4994710;28;20240;-79
2022/04/23 02:48:14;;;;;;;20.17;17.57;;;;;;;7.10;92.22;94186.91;4978939;28;20238;-79
2022/04/23 02:50:39;;;;;;;19.10;16.47;;;;;;;7.12;92.04;94198.84;4995524;28;20179;-79
2022/04/23 02:53:06;;;;;;;22.67;16.83;;;;;;;7.17;92.62;94192.25;4994663;28;20699;-79
2022/04/23 02:55:32;;;;;;;19.93;16.20;;;;;;;7.17;92.66;94194.03;4978258;28;20242;-78
2022/04/23 02:58:08;;;;;;;19.27;16.17;;;;;;;7.15;92.93;94191.56;4995720;28;20247;-78
2022/04/23 03:00:35;;;;;;;20.83;16.77;;;;;;;7.08;92.94;94191.44;4995232;28;20214;-78
2022/04/23 03:03:00;;;;;;;18.17;16.13;;;;;;;6.98;93.29;94182.19;4994018;28;20525;-78
2022/04/23 03:05:26;;;;;;;19.43;17.17;;;;;;;7.01;93.58;94190.44;4994712;28;20257;-78
2022/04/23 03:07:52;;;;;;;19.53;16.73;;;;;;;6.98;93.88;94183.03;4978572;28;20234;-78
2022/04/23 03:10:18;;;;;;;19.23;16.77;;;;;;;6.98;94.01;94183.03;4994545;28;20260;-79
2022/04/23 03:12:44;;;;;;;18.20;16.30;;;;;;;6.98;94.03;94185.59;4994091;28;20537;-78
2022/04/23 03:15:13;;;;;;;23.13;17.77;;;;;;;6.92;94.28;94175.91;4977658;28;20172;-77
2022/04/23 03:17:39;;;;;;;20.13;17.83;;;;;;;6.98;94.72;94175.28;4993621;28;20207;-78
2022/04/23 03:20:05;;;;;;;19.50;17.07;;;;;;;6.93;94.86;94177.53;4994687;28;20168;-79
2022/04/23 03:22:30;;;;;;;21.87;18.07;;;;;;;6.85;94.79;94166.38;4993447;28;20234;-79
2022/04/23 03:24:56;;;;;;;18.77;16.67;;;;;;;6.81;94.95;94171.84;4982573;28;20208;-78
2022/04/23 03:27:22;;;;;;;19.93;17.80;;;;;;;6.86;95.51;94173.16;5001727;28;20191;-79
2022/04/23 03:29:47;;;;;;;19.60;17.43;;;;;;;6.85;95.71;94174.91;4986550;28;20179;-79
2022/04/23 03:32:12;;;;;;;22.90;18.53;;;;;;;6.78;95.85;94177.31;5001339;28;20235;-78
2022/04/23 03:34:38;;;;;;;22.90;17.93;;;;;;;6.80;96.26;94172.84;4983745;28;20199;-79
2022/04/23 03:37:05;;;;;;;23.43;19.57;;;;;;;6.76;96.46;94168.13;4984215;28;20589;-78
2022/04/23 03:39:31;;;;;;;23.33;18.93;;;;;;;6.71;96.74;94167.78;5000428;28;20263;-78
2022/04/23 03:41:56;;;;;;;21.87;18.97;;;;;;;6.63;96.92;94167.78;4996770;28;20307;-79
2022/04/23 03:44:22;;;;;;;25.03;20.53;;;;;;;6.69;97.55;94165.38;4995537;28;20182;-79
2022/04/23 03:46:47;;;;;;;22.63;18.83;;;;;;;6.68;97.29;94163.75;5023777;28;20171;-81
2022/04/23 03:49:12;;;;;;;23.27;20.07;;;;;;;6.59;96.92;94163.88;5015405;28;20190;-78
2022/04/23 03:51:37;;;;;;;22.90;19.80;;;;;;;6.59;97.40;94161.31;5012900;28;20187;-79
2022/04/23 03:54:03;;;;;;;22.40;20.00;;;;;;;6.52;97.39;94163.69;4996685;28;20180;-79
2022/04/23 03:56:28;;;;;;;21.97;18.97;;;;;;;6.43;97.72;94164.63;4995876;28;20258;-80
2022/04/23 03:58:54;;;;;;;24.47;20.40;;;;;;;6.39;98.17;94166.72;4995346;28;20209;-78
2022/04/23 04:01:20;;;;;;;24.27;20.37;;;;;;;6.45;98.39;94160.16;4977070;28;20242;-79
2022/04/23 04:03:45;;;;;;;24.40;20.63;;;;;;;6.43;98.36;94170.59;4978060;28;20175;-79
2022/04/23 04:06:11;;;;;;;22.37;19.90;;;;;;;6.42;99.01;94169.00;4977524;28;20605;-78
2022/04/23 04:08:36;;;;;;;24.60;21.03;;;;;;;6.38;98.53;94178.00;4977511;28;20200;-78
2022/04/23 04:11:02;;;;;;;24.63;20.23;;;;;;;6.34;98.86;94175.88;4993959;28;20195;-79
2022/04/23 04:13:27;;;;;;;24.10;20.63;;;;;;;6.29;99.51;94178.94;4977527;28;20175;-79
2022/04/23 04:15:52;;;;;;;24.93;21.20;;;;;;;6.35;99.10;94180.88;4978547;28;20172;-79
2022/04/23 04:18:18;;;;;;;24.10;21.37;;;;;;;6.29;98.87;94170.41;4994912;28;20220;-79
2022/04/23 04:20:48;;;;;;;25.87;21.43;;;;;;;6.35;99.16;94172.34;4994479;28;20202;-79
2022/04/23 04:23:14;;;;;;;24.17;20.03;;;;;;;6.33;99.05;94159.63;4994480;28;20263;-79
2022/04/23 04:25:39;;;;;;;24.83;21.90;;;;;;;6.34;98.56;94166.38;4994320;28;20231;-79
2022/04/23 04:28:05;;;;;;;26.87;21.63;;;;;;;6.31;98.77;94171.84;4977654;28;20211;-78
2022/04/23 04:31:46;;;;;;;25.70;21.63;;;;;;;6.30;99.73;94172.00;4961208;28;20740;-78
2022/04/23 04:33:16;;;;;;;26.83;22.80;;;;;;;6.36;99.41;94167.06;4992584;28;20554;-78
2022/04/23 04:35:41;;;;;;;25.33;21.53;;;;;;;6.39;99.98;94171.09;4994049;28;20187;-79
2022/04/23 04:38:06;;;;;;;25.67;22.27;;;;;;;6.41;99.81;94169.97;4976702;28;20212;-78
2022/04/23 04:40:32;;;;;;;28.03;22.47;;;;;;;6.40;99.41;94168.34;4992884;28;20194;-79
2022/04/23 04:42:57;;;;;;;28.53;22.63;;;;;;;6.51;98.91;94173.22;4992344;28;20179;-80
2022/04/23 04:45:22;;;;;;;26.90;21.67;;;;;;;6.52;99.24;94169.66;4976581;28;20694;-80
2022/04/23 04:47:47;;;;;;;26.30;22.47;;;;;;;6.64;98.71;94177.94;4992943;28;20200;-78
2022/04/23 04:50:13;;;;;;;25.53;21.90;;;;;;;6.60;98.39;94168.09;4992657;28;20222;-79
2022/04/23 04:52:39;;;;;;;25.30;22.10;;;;;;;6.56;98.15;94174.53;4976691;28;20608;-78
2022/04/23 04:55:04;;;;;;;25.10;22.23;;;;;;;6.55;98.43;94167.75;4976775;28;20644;-78
2022/04/23 04:57:30;;;;;;;24.30;21.67;;;;;;;6.46;99.84;94177.25;4992772;28;20204;-78
2022/04/23 04:59:55;;;;;;;24.63;21.30;;;;;;;6.49;99.52;94172.56;4992679;28;20200;-77
2022/04/23 05:02:20;;;;;;;25.80;20.83;;;;;;;6.44;99.64;94173.97;4991899;28;20192;-78
2022/04/23 05:04:46;;;;;;;24.80;21.10;;;;;;;6.40;100.00;94178.66;4976425;28;20745;-78
2022/04/23 05:07:11;;;;;;;25.83;21.60;;;;;;;6.40;99.85;94188.97;4976441;28;20191;-78
2022/04/23 05:09:36;;;;;;;23.83;20.67;;;;;;;6.44;100.00;94187.69;4996446;28;20187;-79
2022/04/23 05:12:02;;;;;;;23.10;20.60;;;;;;;6.55;99.73;94190.97;4979209;28;20187;-79
2022/04/23 05:14:27;;;;;;;22.40;19.33;;;;;;;6.60;99.29;94186.13;4996177;28;20250;-78
2022/04/23 05:16:52;;;;;;;24.10;19.53;;;;;;;6.63;99.20;94191.00;4995942;28;20191;-79
2022/04/23 05:19:18;;;;;;;22.23;18.73;;;;;;;6.65;98.77;94199.38;4979741;28;20578;-79
2022/04/23 05:21:43;;;;;;;22.80;18.70;;;;;;;6.78;99.13;94192.78;4995416;28;20184;-80
2022/04/23 05:24:08;;;;;;;21.33;18.77;;;;;;;6.84;98.53;94198.31;4979329;28;20234;-79
2022/04/23 05:26:35;;;;;;;20.87;18.63;;;;;;;6.85;98.55;94205.88;4995800;28;20219;-79
2022/04/23 05:29:00;;;;;;;21.73;18.20;;;;;;;6.89;98.28;94204.63;4979939;28;20226;-78
2022/04/23 05:31:26;;;;;;;20.90;18.70;;;;;;;6.94;98.58;94215.25;4995977;28;20538;-78
2022/04/23 05:33:51;;;;;;;20.33;17.87;;;;;;;7.01;98.28;94207.69;4978965;28;20203;-79
2022/04/23 05:36:16;;;;;;;19.50;17.50;;;;;;;7.07;98.16;94207.88;4979072;28;20659;-79
2022/04/23 05:38:42;;;;;;;21.90;17.80;;;;;;;7.18;97.67;94213.72;4995635;28;20250;-79
2022/04/23 05:41:07;;;;;;;19.13;17.10;;;;;;;7.20;97.09;94214.34;4995217;28;20187;-78
2022/04/23 05:43:33;;;;;;;20.67;18.47;;;;;;;7.18;97.30;94209.34;4995553;28;20226;-78
2022/04/23 05:46:00;;;;;;;19.97;17.87;;;;;;;7.22;97.05;94215.00;4979361;28;20211;-78
2022/04/23 05:48:25;;;;;;;19.37;17.43;;;;;;;7.30;97.04;94212.41;4995540;28;20227;-79
2022/04/23 05:50:52;;;;;;;20.87;18.30;;;;;;;7.39;96.84;94216.63;4978886;28;20194;-79
2022/04/23 05:53:17;;;;;;;22.50;18.83;;;;;;;7.22;97.34;94210.63;4994330;28;20188;-79
2022/04/23 05:55:42;;;;;;;20.50;17.77;;;;;;;7.30;97.14;94223.56;4995422;28;20184;-79
2022/04/23 05:58:08;;;;;;;20.90;18.63;;;;;;;7.38;96.87;94215.81;4996651;28;20210;-80
2022/04/23 06:00:33;;;;;;;21.90;18.57;;;;;;;7.44;96.96;94219.53;4995329;28;20191;-79
2022/04/23 06:02:58;;;;;;;22.23;17.63;;;;;;;7.45;97.05;94226.31;4978833;28;20184;-79
2022/04/23 06:05:24;;;;;;;20.50;18.20;;;;;;;7.59;95.89;94220.50;4995183;28;20286;-80
2022/04/23 06:07:49;;;;;;;19.27;17.20;;;;;;;7.61;96.03;94236.66;4979286;28;20617;-79
2022/04/23 06:10:14;;;;;;;19.10;16.77;;;;;;;7.72;95.12;94232.13;4978779;28;20191;-80
2022/04/23 06:12:39;;;;;;;19.83;17.10;;;;;;;7.73;95.46;94233.75;4994368;28;20289;-80
2022/04/23 06:15:05;;;;;;;19.47;17.37;;;;;;;7.86;94.99;94226.28;4982854;28;20363;-80
2022/04/23 06:17:31;;;;;;;19.03;17.03;;;;;;;7.77;94.61;94230.66;4987307;28;20750;-80
2022/04/23 06:19:56;;;;;;;18.57;16.57;;;;;;;7.77;94.39;94227.28;4985925;28;20544;-80
2022/04/23 06:22:22;;;;;;;18.07;15.90;;;;;;;7.78;94.14;94239.25;4998612;28;20180;-81
2022/04/23 06:24:48;;;;;;;19.10;17.10;;;;;;;7.84;94.60;94241.16;4979403;28;20203;-82
2022/04/23 06:27:13;;;;;;;19.30;17.03;;;;;;;7.89;94.50;94251.84;4995205;28;20197;-81
2022/04/23 06:29:39;;;;;;;19.37;16.17;;;;;;;7.91;94.46;94253.28;4995505;28;20187;-81
2022/04/23 06:32:05;;;;;;;18.70;16.73;;;;;;;7.82;93.84;94253.44;5010966;28;20602;-81
2022/04/23 06:34:30;;;;;;;18.70;16.00;;;;;;;7.74;94.26;94250.88;4993636;28;20199;-80
2022/04/23 06:36:55;;;;;;;21.20;17.27;;;;;;;7.75;94.43;94252.47;4978158;28;20188;-81
2022/04/23 06:39:21;;;;;;;18.47;16.47;;;;;;;7.81;94.26;94262.19;4994400;28;20676;-79
2022/04/23 06:41:46;;;;;;;18.13;16.20;;;;;;;7.83;93.87;94260.22;4993506;28;20202;-80
2022/04/23 06:44:11;;;;;;;17.20;15.40;;;;;;;7.89;93.90;94257.00;4977501;28;20188;-81
2022/04/23 06:46:36;;;;;;;18.47;16.23;;;;;;;7.78;94.37;94252.16;4994342;28;20699;-80
2022/04/23 06:49:05;;;;;;;18.50;16.10;;;;;;;7.91;93.95;94252.47;4993700;28;20200;-80
2022/04/23 06:51:31;;;;;;;18.90;16.43;;;;;;;8.08;92.89;94248.09;4977789;28;20622;-80
2022/04/23 06:53:56;;;;;;;18.23;16.23;;;;;;;8.17;92.77;94253.09;4994022;28;20176;-81
2022/04/23 06:56:22;;;;;;;18.50;16.53;;;;;;;8.18;92.07;94253.91;5009922;28;20593;-79
2022/04/23 06:58:48;;;;;;;17.53;15.37;;;;;;;8.12;92.13;94255.34;4993468;28;20216;-80
2022/04/23 07:01:13;;;;;;;17.47;15.20;;;;;;;8.20;91.66;94259.69;4993260;28;20208;-80
2022/04/23 07:03:39;;;;;;;20.73;16.10;;;;;;;8.11;91.83;94263.28;4993743;28;20552;-80
2022/04/23 07:06:04;;;;;;;17.73;15.80;;;;;;;8.04;92.06;94262.31;4977256;28;20311;-80
2022/04/23 07:08:30;;;;;;;18.23;16.10;;;;;;;8.08;92.23;94261.03;4993095;28;20208;-79
2022/04/23 07:10:55;;;;;;;17.13;15.20;;;;;;;8.02;91.42;94269.44;4977158;28;20232;-81
2022/04/23 07:13:21;;;;;;;18.93;15.83;;;;;;;8.11;91.83;94269.25;4992722;28;20199;-80
2022/04/23 07:15:46;;;;;;;20.47;16.63;;;;;;;8.18;91.94;94262.47;4993723;28;20516;-80
2022/04/23 07:18:11;;;;;;;18.53;15.80;;;;;;;7.93;91.96;94274.59;4977023;28;20204;-79
2022/04/23 07:20:39;;;;;;;18.37;16.37;;;;;;;8.03;92.17;94266.66;4993526;28;20180;-80
2022/04/23 07:25:49;;;;;;;17.93;15.77;;;;;;;8.28;90.68;94257.09;4992856;28;20207;-79
2022/04/23 07:28:14;;;;;;;17.67;14.97;;;;;;;8.35;89.98;94267.63;4993307;28;20538;-79
2022/04/23 07:30:39;;;;;;;18.47;15.70;;;;;;;8.48;90.13;94262.75;4993960;28;20180;-78
2022/04/23 07:33:05;;;;;;;19.53;16.47;;;;;;;8.61;89.20;94268.22;4990143;28;93971;-78
2022/04/23 07:38:16;;;;;;;17.20;15.33;;;;;;;8.84;87.30;94268.31;4993574;28;20265;-78
2022/04/23 07:40:42;;;;;;;16.03;14.23;;;;;;;9.08;86.10;94275.13;4993986;28;20184;-79
2022/04/23 07:43:10;;;;;;;15.50;13.90;;;;;;;9.31;84.87;94280.38;4993505;28;20555;-79
2022/04/23 07:45:37;;;;;;;16.50;14.73;;;;;;;9.30;85.21;94273.59;4993718;28;20214;-78
2022/04/23 07:48:02;;;;;;;15.77;14.10;;;;;;;9.43;84.77;94273.00;4993229;28;20203;-78
2022/04/23 07:50:28;;;;;;;15.30;13.70;;;;;;;9.60;83.19;94270.16;4977334;28;20663;-78
2022/04/23 07:52:53;;;;;;;16.17;13.40;;;;;;;9.85;82.09;94270.78;4976833;28;20490;-78
2022/04/23 07:55:18;;;;;;;14.27;12.77;;;;;;;9.75;81.55;94264.22;5009509;28;20178;-79
2022/04/23 07:57:43;;;;;;;14.83;12.53;;;;;;;9.62;81.40;94270.78;4977721;28;20231;-78
2022/04/23 08:00:09;;;;;;;14.23;12.37;;;;;;;9.78;81.69;94269.84;4993329;28;20184;-79
2022/04/23 08:02:34;;;;;;;13.77;12.37;;;;;;;10.16;80.42;94264.69;4993082;28;20223;-79
2022/04/23 08:05:00;;;;;;;13.67;12.27;;;;;;;10.06;79.46;94271.91;4976523;28;20239;-79
2022/04/23 08:07:27;;;;;;;12.27;10.97;;;;;;;10.20;78.36;94263.34;4976770;28;20212;-78
2022/04/23 08:09:52;;;;;;;13.37;11.53;;;;;;;10.61;77.24;94260.41;5009218;28;20206;-78
2022/04/23 08:12:17;;;;;;;11.80;10.60;;;;;;;10.63;75.91;94264.41;4992831;28;20184;-79
2022/04/23 08:14:43;;;;;;;11.03;9.83;;;;;;;10.85;74.50;94257.50;4977427;28;20188;-78
2022/04/23 08:17:08;;;;;;;11.67;10.47;;;;;;;10.88;74.26;94257.16;4993767;28;20203;-79
2022/04/23 08:19:33;;;;;;;10.07;9.07;;;;;;;11.07;73.61;94266.97;4976654;28;20191;-79
2022/04/23 08:21:59;;;;;;;11.03;9.93;;;;;;;11.27;73.28;94271.59;4993181;28;20176;-78
2022/04/23 08:24:24;;;;;;;10.23;9.23;;;;;;;11.02;72.69;94278.91;4976497;28;20183;-80
2022/04/23 08:26:49;;;;;;;9.60;8.70;;;;;;;10.99;73.70;94269.69;5010149;28;20207;-80
2022/04/23 08:31:58;;;;;;;10.57;8.40;;;;;;;10.98;72.07;94268.06;4993137;28;20238;-78
2022/04/23 08:34:24;;;;;;;9.70;8.80;;;;;;;10.85;72.47;94274.88;4976664;28;20614;-79
2022/04/23 08:36:50;;;;;;;9.57;8.67;;;;;;;11.03;72.34;94275.31;4994628;28;20183;-79
2022/04/23 08:39:16;;;;;;;9.70;8.80;;;;;;;11.03;72.41;94275.31;4993376;28;20207;-80
2022/04/23 08:41:41;;;;;;;9.30;8.40;;;;;;;11.10;71.68;94275.41;4992348;28;20179;-79
2022/04/23 08:44:07;;;;;;;9.50;8.60;;;;;;;11.03;72.09;94270.91;4980364;28;20498;-79
2022/04/23 08:46:33;;;;;;;10.40;9.43;;;;;;;11.11;71.70;94266.59;4980849;28;20215;-78
2022/04/23 08:49:09;;;;;;;10.97;9.23;;;;;;;11.32;70.34;94269.28;4981412;28;20607;-79
2022/04/23 08:51:35;;;;;;;10.30;9.20;;;;;;;11.44;69.82;94270.41;4996255;28;20232;-80
2022/04/23 08:54:07;;;;;;;9.53;8.53;;;;;;;11.42;69.64;94274.19;4996777;28;20648;-79
2022/04/23 08:56:34;;;;;;;10.07;8.97;;;;;;;11.03;70.49;94276.09;4996453;28;20254;-79
2022/04/23 08:58:59;;;;;;;9.80;8.90;;;;;;;10.86;71.75;94268.69;4997091;28;20196;-79
2022/04/23 09:01:25;;;;;;;10.20;9.20;;;;;;;10.86;71.12;94269.50;4979905;28;20182;-79
2022/04/23 09:03:50;;;;;;;9.70;8.80;;;;;;;11.39;70.54;94267.53;4979954;28;20180;-79
2022/04/23 09:06:15;;;;;;;10.40;8.23;;;;;;;11.49;69.99;94262.88;4979992;28;20235;-79
2022/04/23 09:09:06;;;;;;;8.90;8.03;;;;;;;11.68;69.43;94269.25;4995743;28;20207;-79
2022/04/23 09:11:34;;;;;;;9.57;8.47;;;;;;;11.74;68.85;94272.88;5012449;28;20651;-79
2022/04/23 09:13:59;;;;;;;8.70;7.80;;;;;;;11.28;69.52;94270.59;4997295;28;20187;-79
2022/04/23 09:24:46;;;;;;;10.47;8.30;;;;;;;12.17;66.11;94269.31;4996601;28;20651;-79
2022/04/23 09:27:12;;;;;;;8.60;7.80;;;;;;;12.16;65.77;94282.50;4980438;28;20192;-80
2022/04/23 09:29:37;;;;;;;9.07;8.17;;;;;;;12.07;67.11;94279.22;4979691;28;20640;-78
2022/04/23 09:32:14;;;;;;;8.70;7.60;;;;;;;11.80;66.98;94269.59;4995314;28;20183;-78
2022/04/23 09:34:40;;;;;;;8.83;7.93;;;;;;;11.94;66.01;94270.53;4995630;28;20203;-79
2022/04/23 09:37:05;;;;;;;8.73;7.83;;;;;;;11.89;67.11;94265.88;4995866;28;20659;-78
2022/04/23 09:39:55;;;;;;;8.50;7.63;;;;;;;12.24;66.72;94276.38;4982935;28;20257;-78
2022/04/23 09:42:20;;;;;;;8.27;7.47;;;;;;;12.14;65.78;94276.69;5041409;28;20195;-77
2022/04/23 09:44:46;;;;;;;8.27;7.47;;;;;;;12.33;65.59;94273.44;5010937;28;20180;-80
2022/04/23 09:47:31;;;;;;;9.37;8.27;;;;;;;12.24;64.68;94271.16;5010485;28;20183;-80
2022/04/23 09:49:57;;;;;;;8.27;7.47;;;;;;;12.23;66.20;94264.34;5002514;28;20180;-80
2022/04/23 09:52:29;;;;;;;7.93;7.13;;;;;;;12.11;66.88;94270.06;4997156;28;20186;-79
2022/04/23 09:54:59;;;;;;;7.93;7.13;;;;;;;12.15;66.14;94275.69;5012915;28;20637;-80
2022/04/23 09:57:25;;;;;;;7.87;7.13;;;;;;;11.91;67.39;94274.28;4997198;28;20188;-79
2022/04/23 09:59:52;;;;;;;8.67;7.73;;;;;;;11.64;67.23;94271.41;4996833;28;20183;-79
2022/04/23 10:02:21;;;;;;;8.33;7.53;;;;;;;11.76;68.13;94271.72;4996235;28;20176;-79
2022/04/23 10:04:47;;;;;;;8.37;7.47;;;;;;;11.76;68.23;94270.94;4980790;28;20180;-79
2022/04/23 10:07:17;;;;;;;8.33;7.50;;;;;;;11.96;66.59;94271.94;4979962;28;20270;-79
2022/04/23 10:09:45;;;;;;;8.93;7.53;;;;;;;12.25;66.52;94275.38;4996390;28;20644;-79
2022/04/23 10:12:14;;;;;;;10.60;7.53;;;;;;;11.77;67.07;94267.34;5012206;28;20180;-79
2022/04/23 10:14:46;;;;;;;9.23;7.33;;;;;;;12.01;67.19;94271.34;4979683;28;20176;-79
2022/04/23 10:17:14;;;;;;;9.03;7.90;;;;;;;11.77;68.10;94268.13;4996592;28;20176;-79
2022/04/23 10:19:40;;;;;;;9.13;7.73;;;;;;;11.70;68.11;94276.84;4980250;28;20188;-79
2022/04/23 10:22:21;;;;;;;8.27;7.43;;;;;;;12.19;66.02;94269.94;4995628;28;20187;-80
2022/04/23 10:24:56;;;;;;;8.50;7.60;;;;;;;11.66;67.01;94275.59;4980100;28;20175;-79
2022/04/23 10:27:25;;;;;;;9.67;7.53;;;;;;;12.00;67.28;94286.16;4996304;28;20293;-79
2022/04/23 10:29:54;;;;;;;8.00;7.20;;;;;;;11.92;66.26;94281.09;4980224;28;20184;-79
2022/04/23 10:32:20;;;;;;;10.50;7.83;;;;;;;12.03;66.46;94275.41;4995399;28;20314;-79
2022/04/23 10:34:45;;;;;;;9.13;7.67;;;;;;;12.38;65.60;94271.06;4978386;28;20535;-80
2022/04/23 10:37:24;;;;;;;9.80;7.70;;;;;;;12.61;65.20;94273.41;4996091;28;20249;-79
2022/04/23 10:39:52;;;;;;;13.97;10.63;;;;;;;12.51;64.83;94267.75;4979530;28;20179;-80
2022/04/23 10:42:18;;;;;;;9.90;7.67;;;;;;;12.97;62.98;94270.63;4995254;28;20214;-80
2022/04/23 10:44:44;;;;;;;8.20;6.93;;;;;;;13.26;62.03;94266.19;4995695;28;20262;-80
2022/04/23 10:47:11;;;;;;;8.00;7.17;;;;;;;12.98;61.22;94268.81;4996482;28;20275;-80
2022/04/23 10:49:37;;;;;;;8.77;6.63;;;;;;;12.62;62.99;94269.00;4979490;28;20180;-79
2022/04/23 10:52:02;;;;;;;8.23;7.20;;;;;;;12.37;63.24;94269.47;4979599;28;20190;-79
2022/04/23 10:54:40;;;;;;;8.37;7.43;;;;;;;12.53;62.89;94262.34;4978776;28;20188;-79
2022/04/23 10:57:09;;;;;;;8.90;7.00;;;;;;;12.81;63.18;94264.91;4997039;28;20176;-79
2022/04/23 10:59:45;;;;;;;9.13;7.23;;;;;;;12.69;62.73;94262.84;4979070;28;20183;-79
2022/04/23 11:02:32;;;;;;;7.93;7.13;;;;;;;13.10;62.89;94263.88;4978666;28;20206;-79
2022/04/23 11:13:48;;;;;;;6.20;5.60;;;;;;;13.20;61.51;94264.34;4994815;28;20271;-79
2022/04/23 11:16:18;;;;;;;8.00;6.43;;;;;;;13.27;60.43;94267.78;4994572;28;20199;-79
2022/04/23 11:18:45;;;;;;;7.17;5.83;;;;;;;13.15;61.67;94264.06;4978058;28;20210;-79
2022/04/23 11:21:14;;;;;;;6.77;6.17;;;;;;;13.29;60.30;94266.59;4978262;28;20184;-80
2022/04/23 11:23:42;;;;;;;7.97;5.67;;;;;;;12.66;62.02;94255.44;4979192;28;20230;-79
2022/04/23 11:26:11;;;;;;;6.33;5.73;;;;;;;12.33;63.08;94259.63;4994324;28;20226;-79
2022/04/23 11:28:37;;;;;;;5.90;5.40;;;;;;;12.37;63.22;94253.06;4994908;28;20264;-78
2022/04/23 11:31:10;;;;;;;8.27;5.67;;;;;;;12.57;62.98;94250.56;4994188;28;20267;-79
2022/04/23 11:33:36;;;;;;;5.87;5.37;;;;;;;12.83;62.19;94255.94;5009111;28;20554;-79
2022/04/23 11:36:01;;;;;;;6.20;5.60;;;;;;;13.04;61.25;94255.00;4994392;28;20172;-79
2022/04/23 11:38:28;;;;;;;6.97;6.10;;;;;;;12.88;63.47;94250.13;4996117;28;20204;-82
2022/04/23 11:40:53;;;;;;;5.83;5.23;;;;;;;12.96;61.67;94248.16;4995585;28;20183;-78
2022/04/23 11:43:33;;;;;;;7.30;6.50;;;;;;;12.63;62.27;94253.22;4977083;28;20182;-79
2022/04/23 11:46:08;;;;;;;6.13;5.27;;;;;;;12.73;62.16;94248.47;4993418;28;20683;-80
2022/04/23 11:48:44;;;;;;;7.40;5.73;;;;;;;13.33;60.90;94252.13;4993687;28;20604;-79